Details for Lufthansa at EDDF




Go Back


Latest METAR
Local Time

EDDF 221050Z 21011KT 180V260 9999 SCT036 SCT150 BKN250 17/07 Q1022 NOSIG
22/09/2018, 13:18:33

Description
Results
Lufthansa Logo
Number of Pilots based at EDDF
0 Pilots Based here
Number of Lufthansa Flights Departed from EDDF
16 Flights Departed
Number of Lufthansa Flights Arrived at EDDF
15 Flights Arrived
Number of Lufthansa Schedules Departing from EDDF
638 Schedules
Number of Lufthansa Schedules Arriving at EDDF
626 Schedules
Number of Lufthansa Schedules Departing from EDDF availible today
441 Schedules Today
Number of Lufthansa Schedules Arriving at EDDF availible today
434 Schedules Today
Average Landing Rate at EDDF
-241 fpm
Lufthansa Average Landing Rate at EDDF
-293 fpm
Total Fuel Purchased at EDDF by Lufthansa
397,592.81 kgs / 876,533.11 lbs

Pilots Based at EDDF


Pilot ID
Pilot Name
Pilot Rank
No. of Flights
No. of Flying Hours
There are no pilots assigned to this hub!   Will you be the first?
Content